Αρχική σελίδα
METAR-TAF:

METAR-TAF

Αεροδρόμια :

Νταρ ες Σαλάμ, Τανζανία

γεωγραφικό πλάτος: 06-52S, γεωγραφικό μήκος: 039-12E, υψόμετρο: 55 μ

Παρών καιρός

Η αναφορά έγινε 50 λεπτά πριν, στις 18:00 UTC
Άνεμος 10 kt από Α/BA
Θερμοκρασία 28°C
Υγρασία 79%
Πίεση 1013 hPa
Ορατότητα 10 χλμ και άνω
Καθαρός ουρανός

METAR: HTDA 151800Z 07010KT 9999 SKC 28/24 Q1013 NOSIG

Χρόνος: 21:50 (18:50 UTC)

Πρόγνωση Καιρού

Η αναφορά έγινε 1 ώρα και 50 λεπτά πριν, στις 17:00 UTC
Η πρόγνωση ισχύει από τις 15 στις 18 UTC έως τις 16 στις 24 UTC
Άνεμος 10 kt από Β/BA
Ορατότητα 10 χλμ και άνω
Διάσπαρτα νέφη σε ύψος 1900 πόδια
Καθιστάμενος
από 16 στις 05 UTC έως τις 16 στις 08 UTC
Αρκετά νέφη σε ύψος 2400 πόδια

TAF: HTDA 151700Z 1518/1624 03010KT 9999 SCT019 BECMG 1605/1608 BKN024

Μετεωρολογικές αναφορές και προγνώσεις για περισσότερα από 4000 αεροδρόμια (δελτία METAR και TAF).

Οι διαθέσιμοι σταθμοί απεικονίζονται στο χάρτη με κίτρινες και κόκκινες κουκκίδες.

Μετακινήστε το ποντίκι πάνω από τις κουκκίδες για να δείτε το όνομα του σταθμού.

Στη συνέχεια, κάντε κλικ για να δείτε τις μετεωρολογικές αναφορές και τις προγνώσεις καιρού.

Για να αλλάξετε το χάρτη: κάντε κλικ στα πράσινα κουμπιά με τον μαύρο σταυρό για να ζουμάρετε, στο πράσινο κουμπί με την παύλα για να αφαιρέσετε το ζουμ ή στα πράσινα βέλη για να αντιπαραβάλλετε χάρτες.


METAR-TAF: